Bridgewater, Massachusetts
Current Conditions -  °F | °C
As of 1:52 AM on Thursday 27 Nov 2014 (Local Time) from KTAN Reporting Station
Light Rain Light Rain  
Wind Chill: -3°   Ceiling: 1200
Heat Index:   Visibility: 10mi
Dew Point: -1°   Wind: 10mph
Humidity: 89%   Direction: 340°NNW
Pressure: 29.68"   Gusts: 22mph
Location:  41.99°N, 70.98°W
Report Text: KTAN 270652Z AUTO 34009G19KT 10SM -RA OVC012 01/M01 A2968 RMK AO2 RAE0555B22UPB0555E22 SLP051 P0000 T00111006
Loading
Personal Weather Stations






























Interactive Weather Map New forecast layout! Learn more

10-Day Weather Forecast

Advertisements
Track Severe Weather on mobile